sensor_id;sensor_type;location;lat;lon;timestamp;P1;durP1;ratioP1;P2;durP2;ratioP2
12145;SDS011;6136;47.032;15.398;2022-09-06T00:01:16;17.53;;;15.73;;
12145;SDS011;6136;47.032;15.398;2022-09-06T00:03:44;18.70;;;16.43;;
12145;SDS011;6136;47.032;15.398;2022-09-06T00:06:13;21.57;;;16.13;;
12145;SDS011;6136;47.032;15.398;2022-09-06T00:08:45;18.77;;;16.83;;
12145;SDS011;6136;47.032;15.398;2022-09-06T00:11:14;18.30;;;16.37;;
12145;SDS011;6136;47.032;15.398;2022-09-06T00:13:43;19.10;;;17.03;;
12145;SDS011;6136;47.032;15.398;2022-09-06T00:16:13;19.87;;;16.53;;
12145;SDS011;6136;47.032;15.398;2022-09-06T00:18:43;22.40;;;16.50;;
12145;SDS011;6136;47.032;15.398;2022-09-06T00:21:13;19.77;;;16.30;;
12145;SDS011;6136;47.032;15.398;2022-09-06T00:23:45;22.40;;;17.63;;
12145;SDS011;6136;47.032;15.398;2022-09-06T00:26:13;18.20;;;16.30;;
12145;SDS011;6136;47.032;15.398;2022-09-06T00:28:41;19.40;;;17.27;;
12145;SDS011;6136;47.032;15.398;2022-09-06T00:31:10;19.70;;;17.60;;
12145;SDS011;6136;47.032;15.398;2022-09-06T00:33:40;19.47;;;15.80;;
12145;SDS011;6136;47.032;15.398;2022-09-06T00:36:08;18.70;;;16.73;;
12145;SDS011;6136;47.032;15.398;2022-09-06T00:38:37;18.33;;;16.27;;
12145;SDS011;6136;47.032;15.398;2022-09-06T00:41:08;18.60;;;15.87;;
12145;SDS011;6136;47.032;15.398;2022-09-06T00:43:38;17.87;;;16.07;;
12145;SDS011;6136;47.032;15.398;2022-09-06T00:46:07;16.87;;;15.07;;
12145;SDS011;6136;47.032;15.398;2022-09-06T00:48:37;17.53;;;15.67;;
12145;SDS011;6136;47.032;15.398;2022-09-06T00:51:07;16.83;;;15.13;;
12145;SDS011;6136;47.032;15.398;2022-09-06T00:53:38;17.87;;;15.87;;
12145;SDS011;6136;47.032;15.398;2022-09-06T00:56:08;18.23;;;15.77;;
12145;SDS011;6136;47.032;15.398;2022-09-06T00:58:36;17.93;;;16.00;;
12145;SDS011;6136;47.032;15.398;2022-09-06T01:01:05;20.13;;;15.97;;
12145;SDS011;6136;47.032;15.398;2022-09-06T01:03:33;17.43;;;15.63;;
12145;SDS011;6136;47.032;15.398;2022-09-06T01:06:17;18.10;;;16.20;;
12145;SDS011;6136;47.032;15.398;2022-09-06T01:08:56;18.33;;;15.67;;
12145;SDS011;6136;47.032;15.398;2022-09-06T01:11:34;17.17;;;15.37;;
12145;SDS011;6136;47.032;15.398;2022-09-06T01:14:15;17.23;;;15.43;;
12145;SDS011;6136;47.032;15.398;2022-09-06T01:16:56;19.43;;;17.40;;
12145;SDS011;6136;47.032;15.398;2022-09-06T01:23:08;20.30;;;16.30;;
12145;SDS011;6136;47.032;15.398;2022-09-06T01:25:53;18.83;;;16.87;;
12145;SDS011;6136;47.032;15.398;2022-09-06T01:28:33;19.53;;;17.37;;
12145;SDS011;6136;47.032;15.398;2022-09-06T01:31:07;18.03;;;16.13;;
12145;SDS011;6136;47.032;15.398;2022-09-06T01:33:45;18.67;;;16.50;;
12145;SDS011;6136;47.032;15.398;2022-09-06T01:36:19;18.37;;;16.00;;
12145;SDS011;6136;47.032;15.398;2022-09-06T01:38:51;21.50;;;16.97;;
12145;SDS011;6136;47.032;15.398;2022-09-06T01:41:19;18.93;;;16.80;;
12145;SDS011;6136;47.032;15.398;2022-09-06T01:43:48;18.00;;;16.20;;
12145;SDS011;6136;47.032;15.398;2022-09-06T01:46:23;16.77;;;15.07;;
12145;SDS011;6136;47.032;15.398;2022-09-06T01:49:11;19.07;;;16.47;;
12145;SDS011;6136;47.032;15.398;2022-09-06T01:51:55;18.33;;;15.93;;
12145;SDS011;6136;47.032;15.398;2022-09-06T01:54:37;17.63;;;15.83;;
12145;SDS011;6136;47.032;15.398;2022-09-06T01:57:19;19.27;;;16.33;;
12145;SDS011;6136;47.032;15.398;2022-09-06T02:00:03;20.43;;;16.50;;
12145;SDS011;6136;47.032;15.398;2022-09-06T02:02:47;21.77;;;16.40;;
12145;SDS011;6136;47.032;15.398;2022-09-06T02:05:27;19.63;;;16.27;;
12145;SDS011;6136;47.032;15.398;2022-09-06T02:07:59;17.67;;;15.63;;
12145;SDS011;6136;47.032;15.398;2022-09-06T02:10:36;19.43;;;15.87;;
12145;SDS011;6136;47.032;15.398;2022-09-06T02:13:08;16.73;;;14.97;;
12145;SDS011;6136;47.032;15.398;2022-09-06T02:15:41;17.83;;;15.57;;
12145;SDS011;6136;47.032;15.398;2022-09-06T02:18:13;20.97;;;15.90;;
12145;SDS011;6136;47.032;15.398;2022-09-06T02:20:46;17.30;;;15.17;;
12145;SDS011;6136;47.032;15.398;2022-09-06T02:23:17;16.30;;;14.33;;
12145;SDS011;6136;47.032;15.398;2022-09-06T02:25:51;17.97;;;16.07;;
12145;SDS011;6136;47.032;15.398;2022-09-06T02:28:22;17.60;;;14.80;;
12145;SDS011;6136;47.032;15.398;2022-09-06T02:30:52;17.57;;;15.23;;
12145;SDS011;6136;47.032;15.398;2022-09-06T02:33:26;21.50;;;15.77;;
12145;SDS011;6136;47.032;15.398;2022-09-06T02:36:01;19.07;;;15.40;;
12145;SDS011;6136;47.032;15.398;2022-09-06T02:38:31;18.00;;;15.10;;
12145;SDS011;6136;47.032;15.398;2022-09-06T02:41:04;16.43;;;14.63;;
12145;SDS011;6136;47.032;15.398;2022-09-06T02:43:35;17.50;;;14.13;;
12145;SDS011;6136;47.032;15.398;2022-09-06T02:46:04;19.13;;;15.27;;
12145;SDS011;6136;47.032;15.398;2022-09-06T02:48:33;16.63;;;14.87;;
12145;SDS011;6136;47.032;15.398;2022-09-06T02:51:01;17.93;;;16.03;;
12145;SDS011;6136;47.032;15.398;2022-09-06T02:53:30;17.67;;;14.87;;
12145;SDS011;6136;47.032;15.398;2022-09-06T02:55:59;16.37;;;14.50;;
12145;SDS011;6136;47.032;15.398;2022-09-06T02:58:27;18.67;;;15.57;;
12145;SDS011;6136;47.032;15.398;2022-09-06T03:00:55;19.47;;;14.57;;
12145;SDS011;6136;47.032;15.398;2022-09-06T03:03:25;17.83;;;15.20;;
12145;SDS011;6136;47.032;15.398;2022-09-06T03:05:53;16.93;;;14.43;;
12145;SDS011;6136;47.032;15.398;2022-09-06T03:08:22;17.13;;;14.73;;
12145;SDS011;6136;47.032;15.398;2022-09-06T03:10:52;16.87;;;15.13;;
12145;SDS011;6136;47.032;15.398;2022-09-06T03:13:22;16.63;;;14.60;;
12145;SDS011;6136;47.032;15.398;2022-09-06T03:15:50;18.47;;;14.77;;
12145;SDS011;6136;47.032;15.398;2022-09-06T03:18:20;16.23;;;14.53;;
12145;SDS011;6136;47.032;15.398;2022-09-06T03:20:49;15.00;;;13.33;;
12145;SDS011;6136;47.032;15.398;2022-09-06T03:23:18;16.67;;;12.97;;
12145;SDS011;6136;47.032;15.398;2022-09-06T03:25:47;16.90;;;14.97;;
12145;SDS011;6136;47.032;15.398;2022-09-06T03:28:15;14.87;;;13.13;;
12145;SDS011;6136;47.032;15.398;2022-09-06T03:30:44;16.77;;;14.30;;
12145;SDS011;6136;47.032;15.398;2022-09-06T03:33:12;16.03;;;13.27;;
12145;SDS011;6136;47.032;15.398;2022-09-06T03:35:45;17.07;;;15.10;;
12145;SDS011;6136;47.032;15.398;2022-09-06T03:38:16;18.63;;;14.83;;
12145;SDS011;6136;47.032;15.398;2022-09-06T03:40:45;16.47;;;14.20;;
12145;SDS011;6136;47.032;15.398;2022-09-06T03:43:13;15.77;;;13.43;;
12145;SDS011;6136;47.032;15.398;2022-09-06T03:45:43;18.47;;;14.33;;
12145;SDS011;6136;47.032;15.398;2022-09-06T03:48:12;15.43;;;13.83;;
12145;SDS011;6136;47.032;15.398;2022-09-06T03:50:44;15.00;;;13.40;;
12145;SDS011;6136;47.032;15.398;2022-09-06T03:53:13;15.20;;;13.57;;
12145;SDS011;6136;47.032;15.398;2022-09-06T03:55:44;15.93;;;14.23;;
12145;SDS011;6136;47.032;15.398;2022-09-06T03:58:14;14.27;;;12.60;;
12145;SDS011;6136;47.032;15.398;2022-09-06T04:00:43;16.70;;;14.47;;
12145;SDS011;6136;47.032;15.398;2022-09-06T04:03:12;17.53;;;14.80;;
12145;SDS011;6136;47.032;15.398;2022-09-06T04:05:43;14.63;;;13.10;;
12145;SDS011;6136;47.032;15.398;2022-09-06T04:08:12;15.13;;;13.60;;
12145;SDS011;6136;47.032;15.398;2022-09-06T04:10:40;16.27;;;14.47;;
12145;SDS011;6136;47.032;15.398;2022-09-06T04:13:10;17.03;;;14.57;;
12145;SDS011;6136;47.032;15.398;2022-09-06T04:15:38;16.03;;;14.33;;
12145;SDS011;6136;47.032;15.398;2022-09-06T04:18:06;15.70;;;14.07;;
12145;SDS011;6136;47.032;15.398;2022-09-06T04:20:34;19.80;;;15.33;;
12145;SDS011;6136;47.032;15.398;2022-09-06T04:23:02;17.77;;;15.40;;
12145;SDS011;6136;47.032;15.398;2022-09-06T04:25:31;20.67;;;16.03;;
12145;SDS011;6136;47.032;15.398;2022-09-06T04:27:59;18.30;;;15.10;;
12145;SDS011;6136;47.032;15.398;2022-09-06T04:30:28;16.00;;;14.30;;
12145;SDS011;6136;47.032;15.398;2022-09-06T04:32:56;18.37;;;15.00;;
12145;SDS011;6136;47.032;15.398;2022-09-06T04:35:24;16.80;;;14.83;;
12145;SDS011;6136;47.032;15.398;2022-09-06T04:37:52;18.37;;;14.60;;
12145;SDS011;6136;47.032;15.398;2022-09-06T04:40:20;17.00;;;15.23;;
12145;SDS011;6136;47.032;15.398;2022-09-06T04:42:48;20.33;;;15.17;;
12145;SDS011;6136;47.032;15.398;2022-09-06T04:45:17;17.17;;;15.30;;
12145;SDS011;6136;47.032;15.398;2022-09-06T04:47:46;17.77;;;15.50;;
12145;SDS011;6136;47.032;15.398;2022-09-06T04:50:15;16.27;;;14.27;;
12145;SDS011;6136;47.032;15.398;2022-09-06T04:52:46;17.63;;;14.63;;
12145;SDS011;6136;47.032;15.398;2022-09-06T04:55:14;17.93;;;15.77;;
12145;SDS011;6136;47.032;15.398;2022-09-06T04:57:42;20.40;;;16.67;;
12145;SDS011;6136;47.032;15.398;2022-09-06T05:00:15;18.37;;;15.87;;
12145;SDS011;6136;47.032;15.398;2022-09-06T05:02:43;19.50;;;16.73;;
12145;SDS011;6136;47.032;15.398;2022-09-06T05:05:13;19.87;;;16.77;;
12145;SDS011;6136;47.032;15.398;2022-09-06T05:07:41;20.63;;;17.43;;
12145;SDS011;6136;47.032;15.398;2022-09-06T05:10:09;17.93;;;15.60;;
12145;SDS011;6136;47.032;15.398;2022-09-06T05:12:37;20.67;;;18.07;;
12145;SDS011;6136;47.032;15.398;2022-09-06T05:15:09;21.03;;;17.87;;
12145;SDS011;6136;47.032;15.398;2022-09-06T05:17:37;21.23;;;18.67;;
12145;SDS011;6136;47.032;15.398;2022-09-06T05:20:06;22.63;;;17.73;;
12145;SDS011;6136;47.032;15.398;2022-09-06T05:22:36;22.57;;;18.57;;
12145;SDS011;6136;47.032;15.398;2022-09-06T05:25:05;24.87;;;20.57;;
12145;SDS011;6136;47.032;15.398;2022-09-06T05:27:34;21.00;;;18.03;;
12145;SDS011;6136;47.032;15.398;2022-09-06T05:30:02;19.07;;;17.03;;
12145;SDS011;6136;47.032;15.398;2022-09-06T05:32:31;21.87;;;17.27;;
12145;SDS011;6136;47.032;15.398;2022-09-06T05:34:59;24.87;;;19.40;;
12145;SDS011;6136;47.032;15.398;2022-09-06T05:37:27;20.67;;;17.80;;
12145;SDS011;6136;47.032;15.398;2022-09-06T05:39:56;21.03;;;18.00;;
12145;SDS011;6136;47.032;15.398;2022-09-06T05:42:25;22.30;;;18.20;;
12145;SDS011;6136;47.032;15.398;2022-09-06T05:44:53;22.70;;;17.53;;
12145;SDS011;6136;47.032;15.398;2022-09-06T05:47:21;23.83;;;18.07;;
12145;SDS011;6136;47.032;15.398;2022-09-06T05:49:50;21.10;;;17.47;;
12145;SDS011;6136;47.032;15.398;2022-09-06T05:52:18;22.70;;;19.07;;
12145;SDS011;6136;47.032;15.398;2022-09-06T05:54:46;22.77;;;18.10;;
12145;SDS011;6136;47.032;15.398;2022-09-06T05:57:16;20.70;;;16.77;;
12145;SDS011;6136;47.032;15.398;2022-09-06T05:59:44;22.10;;;18.07;;
12145;SDS011;6136;47.032;15.398;2022-09-06T06:02:12;22.23;;;18.63;;
12145;SDS011;6136;47.032;15.398;2022-09-06T06:04:40;20.00;;;17.37;;
12145;SDS011;6136;47.032;15.398;2022-09-06T06:07:08;21.77;;;18.20;;
12145;SDS011;6136;47.032;15.398;2022-09-06T06:09:36;22.73;;;18.00;;
12145;SDS011;6136;47.032;15.398;2022-09-06T06:12:04;23.87;;;18.57;;
12145;SDS011;6136;47.032;15.398;2022-09-06T06:14:34;20.33;;;17.20;;
12145;SDS011;6136;47.032;15.398;2022-09-06T06:17:03;20.60;;;17.77;;
12145;SDS011;6136;47.032;15.398;2022-09-06T06:19:32;21.00;;;18.17;;
12145;SDS011;6136;47.032;15.398;2022-09-06T06:22:00;22.83;;;19.67;;
12145;SDS011;6136;47.032;15.398;2022-09-06T06:24:28;19.60;;;17.27;;
12145;SDS011;6136;47.032;15.398;2022-09-06T06:26:56;23.30;;;18.07;;
12145;SDS011;6136;47.032;15.398;2022-09-06T06:29:24;19.03;;;17.03;;
12145;SDS011;6136;47.032;15.398;2022-09-06T06:31:54;21.20;;;18.37;;
12145;SDS011;6136;47.032;15.398;2022-09-06T06:34:22;19.40;;;17.30;;
12145;SDS011;6136;47.032;15.398;2022-09-06T06:36:50;25.73;;;17.83;;
12145;SDS011;6136;47.032;15.398;2022-09-06T06:39:18;24.53;;;18.97;;
12145;SDS011;6136;47.032;15.398;2022-09-06T06:41:46;22.07;;;17.10;;
12145;SDS011;6136;47.032;15.398;2022-09-06T06:44:36;21.10;;;17.80;;
12145;SDS011;6136;47.032;15.398;2022-09-06T06:47:05;21.77;;;18.05;;
12145;SDS011;6136;47.032;15.398;2022-09-06T06:49:33;18.88;;;16.88;;
12145;SDS011;6136;47.032;15.398;2022-09-06T06:52:02;20.47;;;17.50;;
12145;SDS011;6136;47.032;15.398;2022-09-06T06:54:30;24.20;;;17.73;;
12145;SDS011;6136;47.032;15.398;2022-09-06T06:56:58;20.23;;;18.07;;
12145;SDS011;6136;47.032;15.398;2022-09-06T06:59:26;20.42;;;16.90;;
12145;SDS011;6136;47.032;15.398;2022-09-06T07:01:54;25.77;;;20.45;;
12145;SDS011;6136;47.032;15.398;2022-09-06T07:04:24;20.30;;;18.10;;
12145;SDS011;6136;47.032;15.398;2022-09-06T07:06:52;24.00;;;18.23;;
12145;SDS011;6136;47.032;15.398;2022-09-06T07:09:41;22.27;;;18.35;;
12145;SDS011;6136;47.032;15.398;2022-09-06T07:12:29;21.20;;;17.10;;
12145;SDS011;6136;47.032;15.398;2022-09-06T07:14:58;17.77;;;15.88;;
12145;SDS011;6136;47.032;15.398;2022-09-06T07:17:26;17.90;;;15.95;;
12145;SDS011;6136;47.032;15.398;2022-09-06T07:19:56;18.75;;;15.65;;
12145;SDS011;6136;47.032;15.398;2022-09-06T07:22:40;16.35;;;14.63;;
12145;SDS011;6136;47.032;15.398;2022-09-06T07:25:09;16.35;;;14.32;;
12145;SDS011;6136;47.032;15.398;2022-09-06T07:27:40;14.38;;;12.70;;
12145;SDS011;6136;47.032;15.398;2022-09-06T07:30:11;16.20;;;13.63;;
12145;SDS011;6136;47.032;15.398;2022-09-06T07:32:40;15.05;;;13.52;;
12145;SDS011;6136;47.032;15.398;2022-09-06T07:35:09;14.52;;;12.93;;
12145;SDS011;6136;47.032;15.398;2022-09-06T07:37:39;14.88;;;13.40;;
12145;SDS011;6136;47.032;15.398;2022-09-06T07:40:08;13.40;;;11.68;;
12145;SDS011;6136;47.032;15.398;2022-09-06T07:42:37;14.13;;;12.70;;
12145;SDS011;6136;47.032;15.398;2022-09-06T07:45:05;15.43;;;12.75;;
12145;SDS011;6136;47.032;15.398;2022-09-06T07:47:34;14.32;;;12.93;;
12145;SDS011;6136;47.032;15.398;2022-09-06T07:50:23;13.35;;;11.80;;
12145;SDS011;6136;47.032;15.398;2022-09-06T07:53:12;13.25;;;12.02;;
12145;SDS011;6136;47.032;15.398;2022-09-06T07:55:44;13.55;;;12.18;;
12145;SDS011;6136;47.032;15.398;2022-09-06T07:58:13;12.20;;;11.00;;
12145;SDS011;6136;47.032;15.398;2022-09-06T08:00:41;12.55;;;11.45;;
12145;SDS011;6136;47.032;15.398;2022-09-06T08:03:09;11.65;;;10.55;;
12145;SDS011;6136;47.032;15.398;2022-09-06T08:05:39;12.05;;;10.75;;
12145;SDS011;6136;47.032;15.398;2022-09-06T08:08:27;13.13;;;11.63;;
12145;SDS011;6136;47.032;15.398;2022-09-06T08:11:15;12.45;;;11.25;;
12145;SDS011;6136;47.032;15.398;2022-09-06T08:13:44;12.02;;;10.88;;
12145;SDS011;6136;47.032;15.398;2022-09-06T08:16:14;11.05;;;10.00;;
12145;SDS011;6136;47.032;15.398;2022-09-06T08:18:43;11.82;;;10.70;;
12145;SDS011;6136;47.032;15.398;2022-09-06T08:21:13;12.35;;;11.25;;
12145;SDS011;6136;47.032;15.398;2022-09-06T08:23:43;10.73;;;9.73;;
12145;SDS011;6136;47.032;15.398;2022-09-06T08:26:13;11.30;;;10.20;;
12145;SDS011;6136;47.032;15.398;2022-09-06T08:28:41;13.32;;;12.10;;
12145;SDS011;6136;47.032;15.398;2022-09-06T08:31:10;11.18;;;10.07;;
12145;SDS011;6136;47.032;15.398;2022-09-06T08:33:39;12.07;;;10.50;;
12145;SDS011;6136;47.032;15.398;2022-09-06T08:36:08;11.07;;;10.00;;
12145;SDS011;6136;47.032;15.398;2022-09-06T08:38:39;11.73;;;10.55;;
12145;SDS011;6136;47.032;15.398;2022-09-06T08:41:09;11.38;;;10.35;;
12145;SDS011;6136;47.032;15.398;2022-09-06T08:43:39;10.98;;;9.85;;
12145;SDS011;6136;47.032;15.398;2022-09-06T08:46:15;11.77;;;10.77;;
12145;SDS011;6136;47.032;15.398;2022-09-06T08:48:46;11.90;;;10.90;;
12145;SDS011;6136;47.032;15.398;2022-09-06T08:51:21;10.20;;;9.30;;
12145;SDS011;6136;47.032;15.398;2022-09-06T08:54:13;10.07;;;9.18;;
12145;SDS011;6136;47.032;15.398;2022-09-06T08:56:53;11.32;;;10.32;;
12145;SDS011;6136;47.032;15.398;2022-09-06T08:59:32;11.70;;;9.73;;
12145;SDS011;6136;47.032;15.398;2022-09-06T09:02:09;10.73;;;9.82;;
12145;SDS011;6136;47.032;15.398;2022-09-06T09:04:41;10.27;;;9.38;;
12145;SDS011;6136;47.032;15.398;2022-09-06T09:07:15;10.50;;;9.60;;
12145;SDS011;6136;47.032;15.398;2022-09-06T09:09:52;9.65;;;8.80;;
12145;SDS011;6136;47.032;15.398;2022-09-06T09:12:22;9.70;;;8.73;;
12145;SDS011;6136;47.032;15.398;2022-09-06T09:14:52;8.52;;;7.72;;
12145;SDS011;6136;47.032;15.398;2022-09-06T09:17:26;8.43;;;7.72;;
12145;SDS011;6136;47.032;15.398;2022-09-06T09:19:57;8.77;;;7.97;;
12145;SDS011;6136;47.032;15.398;2022-09-06T09:22:25;7.72;;;7.03;;
12145;SDS011;6136;47.032;15.398;2022-09-06T09:24:55;7.80;;;7.20;;
12145;SDS011;6136;47.032;15.398;2022-09-06T09:27:26;6.68;;;6.07;;
12145;SDS011;6136;47.032;15.398;2022-09-06T09:29:56;7.05;;;6.55;;
12145;SDS011;6136;47.032;15.398;2022-09-06T09:32:46;6.28;;;5.75;;
12145;SDS011;6136;47.032;15.398;2022-09-06T09:35:28;7.78;;;7.18;;
12145;SDS011;6136;47.032;15.398;2022-09-06T09:38:00;11.07;;;7.15;;
12145;SDS011;6136;47.032;15.398;2022-09-06T09:40:38;8.00;;;7.22;;
12145;SDS011;6136;47.032;15.398;2022-09-06T09:43:09;8.90;;;8.00;;
12145;SDS011;6136;47.032;15.398;2022-09-06T09:45:42;7.88;;;7.20;;
12145;SDS011;6136;47.032;15.398;2022-09-06T09:48:15;8.13;;;7.40;;
12145;SDS011;6136;47.032;15.398;2022-09-06T09:50:46;7.07;;;6.47;;
12145;SDS011;6136;47.032;15.398;2022-09-06T09:53:15;7.32;;;6.72;;
12145;SDS011;6136;47.032;15.398;2022-09-06T09:55:47;7.28;;;6.57;;
12145;SDS011;6136;47.032;15.398;2022-09-06T09:58:18;8.02;;;7.13;;
12145;SDS011;6136;47.032;15.398;2022-09-06T10:01:07;7.07;;;6.57;;
12145;SDS011;6136;47.032;15.398;2022-09-06T10:03:37;6.75;;;6.15;;
12145;SDS011;6136;47.032;15.398;2022-09-06T10:06:25;7.85;;;7.07;;
12145;SDS011;6136;47.032;15.398;2022-09-06T10:09:15;8.60;;;7.47;;
12145;SDS011;6136;47.032;15.398;2022-09-06T10:11:54;6.97;;;6.40;;
12145;SDS011;6136;47.032;15.398;2022-09-06T10:14:26;7.57;;;6.78;;
12145;SDS011;6136;47.032;15.398;2022-09-06T10:16:56;7.57;;;6.88;;
12145;SDS011;6136;47.032;15.398;2022-09-06T10:19:34;7.35;;;6.50;;
12145;SDS011;6136;47.032;15.398;2022-09-06T10:22:09;7.35;;;6.85;;
12145;SDS011;6136;47.032;15.398;2022-09-06T10:24:49;7.80;;;7.07;;
12145;SDS011;6136;47.032;15.398;2022-09-06T10:27:32;6.68;;;6.18;;
12145;SDS011;6136;47.032;15.398;2022-09-06T10:30:03;7.47;;;6.88;;
12145;SDS011;6136;47.032;15.398;2022-09-06T10:32:37;7.63;;;7.03;;
12145;SDS011;6136;47.032;15.398;2022-09-06T10:35:10;7.00;;;6.50;;
12145;SDS011;6136;47.032;15.398;2022-09-06T10:37:58;6.45;;;5.97;;
12145;SDS011;6136;47.032;15.398;2022-09-06T10:40:41;6.68;;;6.07;;
12145;SDS011;6136;47.032;15.398;2022-09-06T10:43:21;6.68;;;6.03;;
12145;SDS011;6136;47.032;15.398;2022-09-06T10:45:56;6.38;;;5.97;;
12145;SDS011;6136;47.032;15.398;2022-09-06T10:48:26;7.40;;;6.80;;
12145;SDS011;6136;47.032;15.398;2022-09-06T10:50:57;7.53;;;6.93;;
12145;SDS011;6136;47.032;15.398;2022-09-06T10:53:33;7.78;;;7.18;;
12145;SDS011;6136;47.032;15.398;2022-09-06T10:56:07;7.38;;;6.75;;
12145;SDS011;6136;47.032;15.398;2022-09-06T10:58:44;7.13;;;6.60;;
12145;SDS011;6136;47.032;15.398;2022-09-06T11:01:36;7.72;;;6.90;;
12145;SDS011;6136;47.032;15.398;2022-09-06T11:04:17;8.38;;;7.10;;
12145;SDS011;6136;47.032;15.398;2022-09-06T11:06:54;7.95;;;7.13;;
12145;SDS011;6136;47.032;15.398;2022-09-06T11:09:28;6.75;;;6.25;;
12145;SDS011;6136;47.032;15.398;2022-09-06T11:12:01;7.70;;;7.20;;
12145;SDS011;6136;47.032;15.398;2022-09-06T11:14:38;7.53;;;6.65;;
12145;SDS011;6136;47.032;15.398;2022-09-06T11:17:08;7.03;;;6.53;;
12145;SDS011;6136;47.032;15.398;2022-09-06T11:19:44;7.68;;;7.07;;
12145;SDS011;6136;47.032;15.398;2022-09-06T11:22:22;6.30;;;5.80;;
12145;SDS011;6136;47.032;15.398;2022-09-06T11:27:58;6.82;;;6.20;;
12145;SDS011;6136;47.032;15.398;2022-09-06T11:30:29;6.50;;;6.00;;
12145;SDS011;6136;47.032;15.398;2022-09-06T11:33:06;6.88;;;6.22;;
12145;SDS011;6136;47.032;15.398;2022-09-06T11:35:42;6.50;;;5.95;;
12145;SDS011;6136;47.032;15.398;2022-09-06T11:38:17;7.22;;;6.50;;
12145;SDS011;6136;47.032;15.398;2022-09-06T11:40:51;8.35;;;6.63;;
12145;SDS011;6136;47.032;15.398;2022-09-06T11:43:42;6.70;;;6.30;;
12145;SDS011;6136;47.032;15.398;2022-09-06T11:49:39;6.07;;;5.60;;
12145;SDS011;6136;47.032;15.398;2022-09-06T11:55:29;5.97;;;5.57;;
12145;SDS011;6136;47.032;15.398;2022-09-06T11:58:03;6.47;;;5.97;;
12145;SDS011;6136;47.032;15.398;2022-09-06T12:00:35;5.97;;;5.47;;
12145;SDS011;6136;47.032;15.398;2022-09-06T12:03:05;6.45;;;5.95;;
12145;SDS011;6136;47.032;15.398;2022-09-06T12:06:15;6.22;;;5.80;;
12145;SDS011;6136;47.032;15.398;2022-09-06T12:08:45;6.20;;;5.80;;
12145;SDS011;6136;47.032;15.398;2022-09-06T12:11:21;6.13;;;5.70;;
12145;SDS011;6136;47.032;15.398;2022-09-06T12:13:56;6.82;;;6.22;;
12145;SDS011;6136;47.032;15.398;2022-09-06T12:19:37;6.70;;;5.80;;
12145;SDS011;6136;47.032;15.398;2022-09-06T12:28:25;6.70;;;6.10;;
12145;SDS011;6136;47.032;15.398;2022-09-06T12:30:58;6.28;;;5.78;;
12145;SDS011;6136;47.032;15.398;2022-09-06T12:33:28;6.40;;;5.90;;
12145;SDS011;6136;47.032;15.398;2022-09-06T12:38:56;6.13;;;5.72;;
12145;SDS011;6136;47.032;15.398;2022-09-06T12:41:27;5.40;;;5.00;;
12145;SDS011;6136;47.032;15.398;2022-09-06T12:43:57;6.20;;;5.70;;
12145;SDS011;6136;47.032;15.398;2022-09-06T12:46:27;5.80;;;5.40;;
12145;SDS011;6136;47.032;15.398;2022-09-06T12:49:00;8.27;;;4.93;;
12145;SDS011;6136;47.032;15.398;2022-09-06T12:51:29;5.32;;;4.82;;
12145;SDS011;6136;47.032;15.398;2022-09-06T12:54:00;9.45;;;5.50;;
12145;SDS011;6136;47.032;15.398;2022-09-06T12:56:31;6.40;;;5.38;;
12145;SDS011;6136;47.032;15.398;2022-09-06T12:59:10;6.78;;;5.80;;
12145;SDS011;6136;47.032;15.398;2022-09-06T13:01:40;6.28;;;5.68;;
12145;SDS011;6136;47.032;15.398;2022-09-06T13:04:19;8.45;;;5.85;;
12145;SDS011;6136;47.032;15.398;2022-09-06T13:06:53;5.55;;;5.15;;
12145;SDS011;6136;47.032;15.398;2022-09-06T13:09:25;5.93;;;5.35;;
12145;SDS011;6136;47.032;15.398;2022-09-06T13:11:56;6.53;;;6.03;;
12145;SDS011;6136;47.032;15.398;2022-09-06T13:14:30;6.28;;;5.68;;
12145;SDS011;6136;47.032;15.398;2022-09-06T13:17:00;6.18;;;5.68;;
12145;SDS011;6136;47.032;15.398;2022-09-06T13:19:30;6.40;;;5.90;;
12145;SDS011;6136;47.032;15.398;2022-09-06T13:22:01;6.00;;;5.50;;
12145;SDS011;6136;47.032;15.398;2022-09-06T13:24:44;5.97;;;5.47;;
12145;SDS011;6136;47.032;15.398;2022-09-06T13:27:24;7.47;;;5.80;;
12145;SDS011;6136;47.032;15.398;2022-09-06T13:30:00;6.20;;;5.60;;
12145;SDS011;6136;47.032;15.398;2022-09-06T13:32:29;5.78;;;5.28;;
12145;SDS011;6136;47.032;15.398;2022-09-06T13:34:58;7.30;;;5.97;;
12145;SDS011;6136;47.032;15.398;2022-09-06T13:37:28;5.80;;;5.30;;
12145;SDS011;6136;47.032;15.398;2022-09-06T13:39:59;5.43;;;5.03;;
12145;SDS011;6136;47.032;15.398;2022-09-06T13:42:31;5.72;;;5.22;;
12145;SDS011;6136;47.032;15.398;2022-09-06T13:45:14;5.78;;;5.38;;
12145;SDS011;6136;47.032;15.398;2022-09-06T13:47:46;6.03;;;5.55;;
12145;SDS011;6136;47.032;15.398;2022-09-06T13:50:14;6.38;;;5.78;;
12145;SDS011;6136;47.032;15.398;2022-09-06T13:52:42;7.35;;;6.10;;
12145;SDS011;6136;47.032;15.398;2022-09-06T13:55:12;6.88;;;6.13;;
12145;SDS011;6136;47.032;15.398;2022-09-06T13:57:43;5.90;;;5.40;;
12145;SDS011;6136;47.032;15.398;2022-09-06T14:00:12;6.28;;;5.78;;
12145;SDS011;6136;47.032;15.398;2022-09-06T14:02:41;6.22;;;5.63;;
12145;SDS011;6136;47.032;15.398;2022-09-06T14:05:11;6.68;;;6.05;;
12145;SDS011;6136;47.032;15.398;2022-09-06T14:07:40;5.88;;;5.38;;
12145;SDS011;6136;47.032;15.398;2022-09-06T14:10:08;5.35;;;4.85;;
12145;SDS011;6136;47.032;15.398;2022-09-06T14:12:39;6.32;;;5.72;;
12145;SDS011;6136;47.032;15.398;2022-09-06T14:15:07;6.10;;;5.60;;
12145;SDS011;6136;47.032;15.398;2022-09-06T14:17:36;5.20;;;4.80;;
12145;SDS011;6136;47.032;15.398;2022-09-06T14:20:05;6.07;;;5.57;;
12145;SDS011;6136;47.032;15.398;2022-09-06T14:22:34;7.75;;;5.63;;
12145;SDS011;6136;47.032;15.398;2022-09-06T14:25:02;6.28;;;5.78;;
12145;SDS011;6136;47.032;15.398;2022-09-06T14:27:32;6.30;;;5.80;;
12145;SDS011;6136;47.032;15.398;2022-09-06T14:30:03;6.30;;;5.78;;
12145;SDS011;6136;47.032;15.398;2022-09-06T14:32:31;6.70;;;6.10;;
12145;SDS011;6136;47.032;15.398;2022-09-06T14:35:00;6.03;;;5.43;;
12145;SDS011;6136;47.032;15.398;2022-09-06T14:37:31;6.15;;;5.65;;
12145;SDS011;6136;47.032;15.398;2022-09-06T14:40:00;6.13;;;5.63;;
12145;SDS011;6136;47.032;15.398;2022-09-06T14:42:28;6.85;;;6.25;;
12145;SDS011;6136;47.032;15.398;2022-09-06T14:44:56;6.57;;;6.05;;
12145;SDS011;6136;47.032;15.398;2022-09-06T14:47:26;6.72;;;6.03;;
12145;SDS011;6136;47.032;15.398;2022-09-06T14:49:54;7.45;;;6.63;;
12145;SDS011;6136;47.032;15.398;2022-09-06T14:52:22;6.65;;;6.13;;
12145;SDS011;6136;47.032;15.398;2022-09-06T14:54:50;7.07;;;6.38;;
12145;SDS011;6136;47.032;15.398;2022-09-06T14:57:18;6.50;;;6.00;;
12145;SDS011;6136;47.032;15.398;2022-09-06T14:59:46;7.32;;;6.53;;
12145;SDS011;6136;47.032;15.398;2022-09-06T15:02:14;6.47;;;5.97;;
12145;SDS011;6136;47.032;15.398;2022-09-06T15:04:44;7.35;;;6.70;;
12145;SDS011;6136;47.032;15.398;2022-09-06T15:07:13;7.70;;;6.90;;
12145;SDS011;6136;47.032;15.398;2022-09-06T15:09:41;8.40;;;7.50;;
12145;SDS011;6136;47.032;15.398;2022-09-06T15:12:09;6.95;;;6.25;;
12145;SDS011;6136;47.032;15.398;2022-09-06T15:14:37;8.40;;;7.53;;
12145;SDS011;6136;47.032;15.398;2022-09-06T15:17:06;7.13;;;6.40;;
12145;SDS011;6136;47.032;15.398;2022-09-06T15:19:36;11.60;;;7.15;;
12145;SDS011;6136;47.032;15.398;2022-09-06T15:22:06;7.70;;;6.90;;
12145;SDS011;6136;47.032;15.398;2022-09-06T15:24:34;7.15;;;6.55;;